This is the latest recevied weather packets stored in our database for station/object PY5TG-13. If no packets are shown the sender has not sent any weather packets the latest 10 day(s).
| Time | Temp. | Humidity | Pressure | Rain* | Wind** | Luminosity | Snow |
|---|---|---|---|---|---|---|---|
| 1788367272 | 19.44° C | 62% | 1016.4 hPa | 0 mm | - | 438 W/m² | - |
| 1788367207 | 19.44° C | 61% | 1016.5 hPa | 0 mm | - | 112 W/m² | - |
| 1788366614 | 20° C | 59% | 1016.6 hPa | 0 mm | - | 364 W/m² | - |
| 1788366080 | 18.33° C | 65% | 1017 hPa | 0 mm | - | 426 W/m² | - |
| 1788366007 | 18.33° C | 65% | 1017.3 hPa | 0 mm | - | 145 W/m² | - |
| 1788365411 | 18.89° C | 65% | 1017.3 hPa | 0 mm | - | 288 W/m² | - |
| 1788364814 | 18.89° C | 67% | 1017.2 hPa | 0 mm | - | 328 W/m² | - |
| 1788364216 | 18.89° C | 66% | 1017.1 hPa | 0 mm | - | 455 W/m² | - |
| 1788363612 | 20.56° C | 63% | 1016.5 hPa | 0 mm | - | 459 W/m² | - |
| 1788363080 | 20° C | 68% | 1016.8 hPa | 0 mm | - | 447 W/m² | - |
| 1788363020 | 19.44° C | 67% | 1017.1 hPa | 0 mm | - | 287 W/m² | - |
| 1788362423 | 19.44° C | 64% | 1017.1 hPa | 0 mm | - | 436 W/m² | - |
| 1788361821 | 18.89° C | 69% | 1017.4 hPa | 0 mm | - | 481 W/m² | - |
| 1788361211 | 19.44° C | 67% | 1017.2 hPa | 0 mm | - | 475 W/m² | - |
| 1788360072 | 17.22° C | 72% | 1017.8 hPa | 0 mm | - | 178 W/m² | - |
| 1788360006 | 17.22° C | 73% | 1017.9 hPa | 0 mm | - | 187 W/m² | - |
| 1788359412 | 16.67° C | - | - | 0 mm | - | - | - |
| 1788358871 | 16.11° C | 76% | 1018.1 hPa | 0 mm | - | 110 W/m² | - |
| 1788358806 | 16.11° C | 76% | 1018.2 hPa | 0 mm | - | 133 W/m² | - |
| 1788358213 | 16.11° C | - | - | 0 mm | - | - | - |
| 1788357671 | 15.56° C | - | - | 0 mm | - | - | - |
| 1788357606 | 15.56° C | - | - | 0 mm | - | - | - |
| 1788357011 | 16.11° C | 78% | 1018.5 hPa | 0 mm | - | 206 W/m² | - |
| 1788356412 | 16.11° C | 80% | 1018.4 hPa | 0 mm | - | 202 W/m² | - |
| 1788355814 | 15.56° C | 82% | 1018.9 hPa | 0 mm | - | 163 W/m² | - |
* Rain latest hour (hover to see other rain measurements)
** Current wind speed in m/s (hover to see current wind gust speed)